Time;durP1;ratioP1;P1;durP2;ratioP2;P2;SDS_P1;SDS_P2;PMS_P1;PMS_P2;Temp;Humidity;BMP_temperature;BMP_pressure;BME280_temperature;BME280_humidity;BME280_pressure;Samples;Min_cycle;Max_cycle;Signal;HPM_P1;HPM_P2
2022/12/01 00:00:18;;;;;;;72.10;33.92;;;;;;;13.30;58.99;102883.50;5074264;28;20404;-73
2022/12/01 00:02:43;;;;;;;64.03;31.80;;;;;;;12.89;60.12;102875.13;5074164;28;20032;-71
2022/12/01 00:05:09;;;;;;;67.55;32.80;;;;;;;13.34;59.42;102876.69;5057127;28;20041;-71
2022/12/01 00:07:34;;;;;;;80.90;36.05;;;;;;;13.45;59.09;102876.16;5053952;28;20401;-73
2022/12/01 00:12:43;;;;;;;69.55;32.42;;;;;;;13.46;58.62;102867.03;5053757;28;20036;-72
2022/12/01 00:15:11;;;;;;;73.03;33.97;;;;;;;13.17;59.70;102869.84;5054305;28;20513;-72
2022/12/01 00:17:37;;;;;;;72.53;34.50;;;;;;;13.25;59.01;102879.72;5053766;28;20051;-73
2022/12/01 00:20:05;;;;;;;72.18;34.50;;;;;;;12.84;60.77;102876.72;5053461;28;20029;-72
2022/12/01 00:22:31;;;;;;;78.00;34.83;;;;;;;12.98;60.23;102876.69;5045703;28;20048;-72
2022/12/01 00:24:56;;;;;;;67.65;32.17;;;;;;;13.48;58.97;102872.22;5053535;28;20412;-73
2022/12/01 00:27:22;;;;;;;72.22;33.60;;;;;;;13.07;59.88;102874.75;5053427;28;20043;-72
2022/12/01 00:29:47;;;;;;;77.63;33.35;;;;;;;13.56;59.01;102872.09;5057290;28;20648;-72
2022/12/01 00:32:13;;;;;;;68.72;32.78;;;;;;;13.53;58.84;102864.34;5073497;28;20083;-72
2022/12/01 00:34:38;;;;;;;70.70;33.95;;;;;;;13.51;59.07;102869.13;5073382;28;20025;-72
2022/12/01 00:37:04;;;;;;;77.13;34.42;;;;;;;13.69;58.22;102866.78;5073535;28;20060;-73
2022/12/01 00:39:30;;;;;;;71.47;34.65;;;;;;;13.32;59.40;102864.38;5068572;28;20044;-73
2022/12/01 00:41:55;;;;;;;65.47;31.90;;;;;;;13.74;57.93;102858.91;5070110;28;20041;-72
2022/12/01 00:44:20;;;;;;;76.55;34.67;;;;;;;13.55;58.41;102865.00;5073191;28;20044;-71
2022/12/01 00:46:46;;;;;;;83.75;35.67;;;;;;;13.56;58.43;102864.81;5073072;28;20131;-71
2022/12/01 00:49:12;;;;;;;75.10;35.15;;;;;;;13.83;57.89;102868.56;5072918;28;20066;-70
2022/12/01 00:51:38;;;;;;;86.15;34.03;;;;;;;13.58;58.21;102870.03;5073056;28;20035;-71
2022/12/01 00:54:03;;;;;;;75.65;34.60;;;;;;;13.53;58.19;102869.75;5073689;28;20032;-71
2022/12/01 00:56:29;;;;;;;80.88;34.63;;;;;;;13.26;59.18;102862.47;5072942;28;20033;-72
2022/12/01 00:58:54;;;;;;;76.82;34.65;;;;;;;13.52;58.47;102870.81;5072863;28;20047;-70
2022/12/01 01:01:19;;;;;;;75.70;34.83;;;;;;;13.67;58.39;102866.97;5056862;28;20112;-71
2022/12/01 01:03:45;;;;;;;77.45;34.65;;;;;;;13.66;58.15;102870.69;5052411;28;20043;-71
2022/12/01 01:06:11;;;;;;;82.00;35.00;;;;;;;13.79;57.78;102870.81;5050554;28;20091;-70
2022/12/01 01:08:37;;;;;;;80.55;33.20;;;;;;;13.77;57.62;102866.63;5052667;28;20458;-72
2022/12/01 01:11:04;;;;;;;78.65;35.53;;;;;;;13.84;57.39;102868.34;5052466;28;20037;-70
2022/12/01 01:13:30;;;;;;;74.13;35.83;;;;;;;14.05;56.88;102879.09;5052444;28;20051;-70
2022/12/01 01:16:06;;;;;;;72.97;34.08;;;;;;;13.74;57.75;102878.66;5052283;28;20123;-71
2022/12/01 01:18:32;;;;;;;73.70;33.53;;;;;;;13.63;57.94;102875.66;5052381;28;20492;-71
2022/12/01 01:21:02;;;;;;;70.18;33.60;;;;;;;13.79;57.83;102872.69;5052956;28;20033;-72
2022/12/01 01:23:28;;;;;;;78.73;35.93;;;;;;;13.94;57.30;102881.50;5052310;28;20048;-71
2022/12/01 01:25:53;;;;;;;72.57;34.47;;;;;;;14.00;57.09;102872.63;5051470;28;20450;-71
2022/12/01 01:28:19;;;;;;;76.18;35.95;;;;;;;14.10;57.11;102875.81;5051498;28;20037;-71
2022/12/01 01:30:45;;;;;;;83.00;35.72;;;;;;;14.03;57.27;102885.75;5062541;28;20063;-71
2022/12/01 01:33:10;;;;;;;76.93;33.60;;;;;;;13.99;56.92;102884.47;5071974;28;20096;-72
2022/12/01 01:35:35;;;;;;;71.47;34.80;;;;;;;13.75;57.97;102893.03;5071110;28;20028;-70
2022/12/01 01:38:01;;;;;;;70.28;31.90;;;;;;;13.65;58.06;102889.81;5071129;28;20508;-72
2022/12/01 01:40:26;;;;;;;72.50;32.88;;;;;;;13.61;57.56;102896.63;5085996;28;20093;-70
2022/12/01 01:42:52;;;;;;;68.90;31.50;;;;;;;13.61;58.32;102897.47;5071167;28;20037;-71
2022/12/01 01:45:27;;;;;;;77.97;35.72;;;;;;;13.91;57.16;102887.31;5071175;28;20110;-74
2022/12/01 01:47:56;;;;;;;74.95;34.67;;;;;;;13.94;57.00;102889.63;5071699;28;20086;-71
2022/12/01 01:50:27;;;;;;;74.30;31.88;;;;;;;13.72;57.34;102888.84;5071032;28;20051;-71
2022/12/01 01:53:03;;;;;;;68.55;30.15;;;;;;;13.47;57.81;102890.28;5071404;28;20042;-72
2022/12/01 01:55:32;;;;;;;72.78;32.40;;;;;;;13.50;57.93;102887.22;5071800;28;20040;-71
2022/12/01 01:57:58;;;;;;;71.90;31.90;;;;;;;13.32;57.88;102894.09;5071647;28;20651;-73
2022/12/01 02:00:24;;;;;;;63.38;30.23;;;;;;;13.66;57.64;102896.91;5071821;28;20028;-71
2022/12/01 02:02:50;;;;;;;74.95;33.45;;;;;;;13.57;57.64;102901.59;5072040;28;20641;-71
2022/12/01 02:05:28;;;;;;;82.65;33.47;;;;;;;13.70;57.40;102898.19;5071508;28;20040;-71
2022/12/01 02:07:56;;;;;;;87.35;34.50;;;;;;;13.74;57.26;102894.88;5071809;28;20056;-71
2022/12/01 02:10:30;;;;;;;73.75;32.70;;;;;;;13.53;57.57;102897.63;5071494;28;20041;-71
2022/12/01 02:13:10;;;;;;;72.10;32.83;;;;;;;13.88;56.93;102895.81;5071727;28;20039;-72
2022/12/01 02:15:35;;;;;;;71.60;32.78;;;;;;;13.78;57.29;102900.72;5071680;28;20043;-72
2022/12/01 02:18:26;;;;;;;79.05;33.22;;;;;;;13.77;57.22;102891.81;5071933;28;20024;-71
2022/12/01 02:21:04;;;;;;;79.93;33.00;;;;;;;13.59;57.34;102893.31;5071495;28;20052;-70
2022/12/01 02:24:19;;;;;;;83.15;35.13;;;;;;;13.54;57.86;102895.75;5071393;28;20052;-70
2022/12/01 02:27:12;;;;;;;88.68;35.97;;;;;;;13.59;57.93;102883.34;5071331;28;20534;-70
2022/12/01 02:29:59;;;;;;;76.88;34.22;;;;;;;13.89;57.03;102884.00;5071113;28;20032;-69
2022/12/01 02:33:02;;;;;;;83.40;35.15;;;;;;;13.71;57.70;102889.03;5071229;28;20062;-70
2022/12/01 02:35:30;;;;;;;77.97;33.55;;;;;;;13.11;58.99;102893.06;5071035;28;20127;-71
2022/12/01 02:38:23;;;;;;;87.45;34.95;;;;;;;13.10;59.92;102886.00;5071135;28;20037;-71
2022/12/01 02:40:58;;;;;;;82.70;33.72;;;;;;;13.61;58.25;102886.69;5071188;28;20143;-71
2022/12/01 02:43:38;;;;;;;76.53;33.63;;;;;;;13.29;59.49;102881.81;5053211;28;20079;-71
2022/12/01 02:46:12;;;;;;;93.55;35.28;;;;;;;13.58;58.04;102884.34;5071144;28;20090;-71
2022/12/01 02:48:42;;;;;;;88.38;36.47;;;;;;;13.64;58.24;102888.97;5071425;28;20033;-70
2022/12/01 02:51:18;;;;;;;88.33;37.80;;;;;;;13.74;57.98;102886.78;5071527;28;20036;-71
2022/12/01 02:53:44;;;;;;;85.47;34.70;;;;;;;13.24;59.66;102884.25;5071031;28;20044;-71
2022/12/01 02:56:12;;;;;;;84.82;35.20;;;;;;;13.55;58.74;102886.59;5071167;28;20044;-72
2022/12/01 02:58:38;;;;;;;84.38;37.90;;;;;;;13.82;57.87;102894.75;5071242;28;20032;-71
2022/12/01 03:01:45;;;;;;;95.43;38.35;;;;;;;13.82;57.57;102891.19;5052992;28;20562;-71
2022/12/01 03:04:20;;;;;;;89.50;35.17;;;;;;;13.93;57.63;102882.56;5070386;28;20075;-71
2022/12/01 03:07:11;;;;;;;89.68;36.08;;;;;;;13.83;57.57;102890.19;5074248;28;20032;-72
2022/12/01 03:09:50;;;;;;;87.63;34.53;;;;;;;13.81;58.05;102887.69;5074360;28;20032;-72
2022/12/01 03:12:34;;;;;;;97.38;38.28;;;;;;;13.62;58.50;102890.22;5074726;28;20194;-69
2022/12/01 03:15:25;;;;;;;87.55;36.88;;;;;;;13.59;57.92;102894.13;5075335;28;20037;-71
2022/12/01 03:18:21;;;;;;;90.57;36.47;;;;;;;13.87;57.77;102899.56;5074808;28;20072;-70
2022/12/01 03:21:02;;;;;;;102.43;39.38;;;;;;;13.51;58.98;102890.72;5007663;28;20045;-69
2022/12/01 03:23:33;;;;;;;93.18;37.03;;;;;;;13.77;58.13;102885.56;5012298;28;20436;-70
2022/12/01 03:26:02;;;;;;;106.35;40.85;;;;;;;13.75;57.92;102885.75;5011982;28;20038;-72
2022/12/01 03:28:31;;;;;;;104.38;37.67;;;;;;;13.75;57.85;102884.91;5011949;28;20038;-70
2022/12/01 03:31:05;;;;;;;97.00;37.88;;;;;;;13.77;58.00;102891.81;5011804;28;20038;-70
2022/12/01 03:33:39;;;;;;;100.15;36.85;;;;;;;13.82;57.92;102889.34;5012369;28;20609;-71
2022/12/01 03:36:13;;;;;;;99.28;39.78;;;;;;;13.87;57.75;102886.06;5012408;28;20046;-71
2022/12/01 03:38:42;;;;;;;108.53;40.63;;;;;;;13.87;57.52;102889.59;5012176;28;20041;-71
2022/12/01 03:41:23;;;;;;;92.75;37.20;;;;;;;14.08;57.11;102885.97;5011533;28;20080;-71
2022/12/01 03:44:01;;;;;;;96.70;36.17;;;;;;;13.89;57.39;102894.78;5011965;28;20140;-69
2022/12/01 03:46:39;;;;;;;103.07;38.72;;;;;;;13.88;57.57;102885.00;5011832;28;20042;-70
2022/12/01 03:49:07;;;;;;;101.20;38.53;;;;;;;13.85;58.28;102886.25;5010795;28;20045;-69
2022/12/01 03:52:05;;;;;;;95.80;38.25;;;;;;;13.92;57.54;102886.28;5011786;28;20741;-70
2022/12/01 03:54:36;;;;;;;91.82;39.13;;;;;;;13.78;57.49;102887.22;4972607;28;20051;-71
2022/12/01 03:57:10;;;;;;;109.80;41.10;;;;;;;13.70;57.97;102881.97;4983278;28;20054;-70
2022/12/01 03:59:38;;;;;;;109.70;39.28;;;;;;;14.01;57.52;102877.81;5011724;28;20394;-70
2022/12/01 04:02:08;;;;;;;90.95;36.83;;;;;;;13.78;57.74;102873.69;5011506;28;20088;-71
2022/12/01 04:04:33;;;;;;;95.27;40.90;;;;;;;13.74;57.79;102877.81;5010654;28;20081;-71
2022/12/01 04:06:59;;;;;;;97.80;36.63;;;;;;;13.42;58.64;102890.06;5011399;28;20423;-70
2022/12/01 04:09:24;;;;;;;98.35;38.05;;;;;;;13.75;57.69;102888.47;5011293;28;20561;-72
2022/12/01 04:14:33;;;;;;;92.18;36.70;;;;;;;13.52;58.88;102887.03;5011335;28;20192;-71
2022/12/01 04:16:59;;;;;;;98.35;38.13;;;;;;;13.72;57.77;102888.03;5010838;28;20544;-70
2022/12/01 04:19:24;;;;;;;97.93;37.42;;;;;;;13.78;57.82;102890.75;5011339;28;20414;-70
2022/12/01 04:21:49;;;;;;;91.90;36.75;;;;;;;13.83;57.43;102880.22;5010595;28;20037;-71
2022/12/01 04:24:15;;;;;;;96.70;38.33;;;;;;;13.85;57.52;102882.72;5011200;28;20541;-70
2022/12/01 04:26:41;;;;;;;97.75;39.08;;;;;;;13.95;57.17;102891.31;5011579;28;20242;-70
2022/12/01 04:29:09;;;;;;;103.03;40.88;;;;;;;13.85;57.25;102894.38;5011092;28;20438;-71
2022/12/01 04:31:34;;;;;;;95.00;40.28;;;;;;;13.76;57.51;102892.81;5045863;28;20480;-70
2022/12/01 04:34:00;;;;;;;95.68;37.90;;;;;;;13.57;58.48;102885.41;5073444;28;20036;-71
2022/12/01 04:36:29;;;;;;;96.22;38.30;;;;;;;13.93;57.35;102891.50;5073232;28;20020;-71
2022/12/01 04:38:54;;;;;;;94.28;39.50;;;;;;;14.03;56.99;102891.16;5073594;28;20029;-70
2022/12/01 04:41:20;;;;;;;96.15;40.08;;;;;;;13.89;57.31;102897.50;5073244;28;20032;-71
2022/12/01 04:43:45;;;;;;;98.05;38.55;;;;;;;13.81;57.35;102892.25;5073221;28;20124;-71
2022/12/01 04:46:11;;;;;;;95.70;39.60;;;;;;;13.72;57.53;102898.84;5058632;28;20483;-71
2022/12/01 04:48:38;;;;;;;88.18;37.75;;;;;;;13.64;57.99;102898.97;5053340;28;20123;-71
2022/12/01 04:51:05;;;;;;;96.80;40.78;;;;;;;13.85;57.08;102899.75;5053255;28;20043;-72
2022/12/01 04:53:31;;;;;;;89.45;40.25;;;;;;;13.70;57.39;102899.00;5052924;28;20033;-70
2022/12/01 04:55:59;;;;;;;96.90;40.47;;;;;;;13.62;57.83;102887.53;5053018;28;20086;-68
2022/12/01 04:58:24;;;;;;;92.15;40.03;;;;;;;13.40;58.68;102888.56;5052872;28;20033;-71
2022/12/01 05:00:49;;;;;;;91.18;39.47;;;;;;;13.30;58.88;102880.78;5052297;28;20515;-70
2022/12/01 05:03:15;;;;;;;94.43;38.80;;;;;;;13.22;58.57;102878.22;5071511;28;20044;-70
2022/12/01 05:05:40;;;;;;;85.80;39.08;;;;;;;13.02;58.96;102888.78;5072289;28;20060;-69
2022/12/01 05:08:05;;;;;;;109.78;40.83;;;;;;;13.42;58.18;102881.09;5072280;28;20111;-72
2022/12/01 05:10:35;;;;;;;100.60;41.97;;;;;;;13.45;57.70;102886.94;5071824;28;20132;-71
2022/12/01 05:13:02;;;;;;;95.00;40.53;;;;;;;13.19;58.14;102879.44;5072066;28;20591;-71
2022/12/01 05:15:27;;;;;;;97.57;41.00;;;;;;;13.35;57.55;102875.63;5072135;28;20123;-72
2022/12/01 05:17:52;;;;;;;99.43;40.35;;;;;;;13.22;57.79;102880.91;5054335;28;20415;-71
2022/12/01 05:23:05;;;;;;;98.10;38.92;;;;;;;13.01;58.56;102879.00;5071902;28;20063;-70
2022/12/01 05:25:31;;;;;;;103.47;41.83;;;;;;;13.16;58.01;102882.53;5062701;28;20064;-72
2022/12/01 05:27:57;;;;;;;107.22;43.50;;;;;;;13.07;58.39;102885.56;5064181;28;20036;-71
2022/12/01 05:30:22;;;;;;;101.80;42.00;;;;;;;13.07;58.78;102882.84;5067782;28;20029;-71
2022/12/01 05:32:47;;;;;;;100.75;43.22;;;;;;;13.33;58.18;102877.69;5068493;28;20009;-72
2022/12/01 05:35:13;;;;;;;99.20;42.47;;;;;;;13.38;57.88;102887.91;5070882;28;20538;-71
2022/12/01 05:37:38;;;;;;;99.25;42.30;;;;;;;13.43;57.93;102885.47;5070535;28;20091;-70
2022/12/01 05:40:04;;;;;;;93.90;41.15;;;;;;;13.52;57.92;102884.31;5070620;28;20040;-71
2022/12/01 05:42:30;;;;;;;95.95;44.08;;;;;;;13.47;57.58;102895.69;5068291;28;20028;-71
2022/12/01 05:44:55;;;;;;;101.03;42.63;;;;;;;13.52;57.64;102900.53;5071248;28;20031;-71
2022/12/01 05:47:21;;;;;;;101.80;42.60;;;;;;;13.30;58.12;102894.28;5070368;28;20484;-72
2022/12/01 05:49:46;;;;;;;99.72;41.67;;;;;;;13.67;57.22;102898.56;5070726;28;20040;-70
2022/12/01 05:52:11;;;;;;;95.88;41.42;;;;;;;13.52;57.34;102892.41;5070274;28;20419;-71
2022/12/01 05:54:37;;;;;;;93.28;42.45;;;;;;;13.64;57.10;102888.16;5070753;28;20508;-72
2022/12/01 05:57:02;;;;;;;103.07;44.35;;;;;;;13.75;57.29;102887.63;5070695;28;20111;-70
2022/12/01 05:59:28;;;;;;;93.93;39.58;;;;;;;13.52;57.44;102890.53;5070239;28;20032;-71
2022/12/01 06:01:53;;;;;;;93.38;41.00;;;;;;;13.57;57.22;102890.81;5052062;28;20441;-72
2022/12/01 06:04:18;;;;;;;92.40;41.35;;;;;;;13.68;57.23;102901.06;5070215;28;20437;-71
2022/12/01 06:06:44;;;;;;;98.95;40.47;;;;;;;13.54;57.67;102901.16;5069750;28;20033;-71
2022/12/01 06:09:09;;;;;;;93.57;42.45;;;;;;;13.25;57.55;102901.31;5070190;28;20104;-71
2022/12/01 06:11:34;;;;;;;94.97;39.58;;;;;;;13.39;58.21;102906.63;5066807;28;20025;-71
2022/12/01 06:14:02;;;;;;;85.40;40.50;;;;;;;13.53;57.26;102911.13;5068039;28;20148;-69
2022/12/01 06:16:28;;;;;;;96.88;40.70;;;;;;;13.28;58.45;102917.94;5070522;28;20047;-71
2022/12/01 06:18:53;;;;;;;95.85;40.45;;;;;;;13.00;59.01;102920.53;5069255;28;20040;-70
2022/12/01 06:21:18;;;;;;;86.97;40.70;;;;;;;13.45;57.67;102915.81;5070226;28;20036;-70
2022/12/01 06:23:44;;;;;;;96.40;41.03;;;;;;;13.53;57.37;102918.38;5071162;28;20119;-70
2022/12/01 06:26:09;;;;;;;91.05;41.65;;;;;;;12.96;58.45;102916.53;5070490;28;20037;-69
2022/12/01 06:28:34;;;;;;;93.57;40.25;;;;;;;12.68;60.08;102915.56;5070607;28;20490;-70
2022/12/01 06:31:02;;;;;;;93.82;41.65;;;;;;;13.14;58.60;102913.44;5070265;28;20137;-70
2022/12/01 06:33:28;;;;;;;96.45;39.80;;;;;;;12.47;60.44;102920.88;5070543;28;20112;-71
2022/12/01 06:36:01;;;;;;;90.90;40.75;;;;;;;12.94;59.27;102915.03;5071047;28;20025;-69
2022/12/01 06:38:30;;;;;;;92.30;40.58;;;;;;;12.73;59.48;102921.25;5057558;28;20059;-70
2022/12/01 06:40:55;;;;;;;92.20;41.35;;;;;;;12.30;60.61;102919.41;5056480;28;20044;-70
2022/12/01 06:43:21;;;;;;;91.80;41.00;;;;;;;12.57;60.55;102918.75;5070165;28;20057;-71
2022/12/01 06:45:46;;;;;;;95.90;41.88;;;;;;;12.43;60.60;102924.13;5070718;28;20037;-71
2022/12/01 06:48:12;;;;;;;95.45;40.90;;;;;;;13.01;58.68;102924.06;5070790;28;20032;-71
2022/12/01 06:50:37;;;;;;;93.13;42.10;;;;;;;13.25;58.62;102920.22;5070294;28;20115;-71
2022/12/01 06:53:03;;;;;;;103.60;43.95;;;;;;;13.46;57.71;102920.19;5070044;28;20029;-70
2022/12/01 06:55:28;;;;;;;100.40;42.17;;;;;;;13.56;57.41;102926.13;5069531;28;20056;-72
2022/12/01 06:57:54;;;;;;;91.10;41.58;;;;;;;13.51;57.59;102932.09;5069153;28;20051;-70
2022/12/01 07:00:19;;;;;;;103.35;43.03;;;;;;;13.56;57.25;102926.13;5059522;28;20033;-71
2022/12/01 07:02:45;;;;;;;92.75;41.67;;;;;;;13.56;57.33;102926.94;5051438;28;20036;-72
2022/12/01 07:05:10;;;;;;;88.60;39.47;;;;;;;13.62;57.08;102928.84;5053872;28;20591;-71
2022/12/01 07:07:37;;;;;;;87.78;42.53;;;;;;;13.88;56.71;102933.66;5050864;28;20040;-70
2022/12/01 07:10:03;;;;;;;92.55;40.22;;;;;;;13.45;57.77;102929.31;5049999;28;20048;-69
2022/12/01 07:12:30;;;;;;;96.40;43.53;;;;;;;13.54;56.77;102928.19;5049983;28;20021;-69
2022/12/01 07:14:56;;;;;;;94.20;40.40;;;;;;;12.98;58.73;102940.63;5034967;28;20029;-70
2022/12/01 07:17:22;;;;;;;96.93;43.25;;;;;;;13.36;57.49;102936.72;5069958;28;20036;-70
2022/12/01 07:19:47;;;;;;;91.10;41.83;;;;;;;13.63;57.30;102944.06;5051863;28;20048;-70
2022/12/01 07:22:14;;;;;;;98.30;42.03;;;;;;;13.62;57.12;102946.97;5069724;28;20043;-71
2022/12/01 07:24:39;;;;;;;95.45;41.13;;;;;;;13.36;57.56;102942.13;5070043;28;20062;-71
2022/12/01 07:27:04;;;;;;;88.90;39.22;;;;;;;13.24;58.21;102954.47;5070353;28;20072;-71
2022/12/01 07:29:29;;;;;;;85.60;41.05;;;;;;;13.06;59.13;102959.44;5051141;28;20071;-68
2022/12/01 07:31:55;;;;;;;98.20;44.13;;;;;;;13.41;57.76;102953.19;5070797;28;20101;-71
2022/12/01 07:34:20;;;;;;;100.20;41.13;;;;;;;13.56;57.41;102958.53;5060900;28;20171;-71
2022/12/01 07:36:45;;;;;;;88.75;40.20;;;;;;;13.33;57.36;102955.16;5050361;28;20073;-70
2022/12/01 07:39:11;;;;;;;100.38;40.53;;;;;;;13.14;59.08;102960.16;5050883;28;20063;-69
2022/12/01 07:41:36;;;;;;;96.05;44.53;;;;;;;13.02;59.35;102967.06;5050494;28;20575;-70
2022/12/01 07:44:02;;;;;;;93.35;41.72;;;;;;;12.87;59.77;102954.63;5050425;28;20493;-70
2022/12/01 07:46:27;;;;;;;100.90;40.33;;;;;;;13.26;58.73;102959.66;5050518;28;20048;-71
2022/12/01 07:48:55;;;;;;;100.47;41.70;;;;;;;13.31;58.36;102962.63;5050424;28;20029;-71
2022/12/01 07:51:22;;;;;;;101.10;42.80;;;;;;;12.87;59.63;102965.41;5052439;28;20123;-69
2022/12/01 07:53:49;;;;;;;100.20;43.15;;;;;;;13.38;58.38;102966.22;5054374;28;20021;-72
2022/12/01 07:56:15;;;;;;;97.32;42.05;;;;;;;13.25;58.68;102961.53;5053784;28;20814;-71
2022/12/01 07:58:41;;;;;;;96.70;42.53;;;;;;;13.35;58.17;102972.00;5053771;28;20521;-70
2022/12/01 08:01:12;;;;;;;100.35;41.63;;;;;;;13.26;58.28;102965.06;5053902;28;20044;-70
2022/12/01 08:03:38;;;;;;;101.45;44.03;;;;;;;13.36;58.15;102962.88;5053973;28;20037;-70
2022/12/01 08:06:05;;;;;;;91.60;40.28;;;;;;;13.47;57.19;102959.66;5054140;28;20071;-70
2022/12/01 08:08:32;;;;;;;101.15;44.92;;;;;;;13.31;57.45;102965.31;5053772;28;20048;-70
2022/12/01 08:11:00;;;;;;;94.63;42.05;;;;;;;12.86;58.74;102967.25;5061087;28;20389;-70
2022/12/01 08:13:25;;;;;;;92.00;41.88;;;;;;;12.98;58.24;102970.31;5069007;28;20422;-71
2022/12/01 08:15:51;;;;;;;100.13;42.50;;;;;;;12.68;59.33;102969.50;5072994;28;20043;-71
2022/12/01 08:18:16;;;;;;;94.72;41.63;;;;;;;12.90;58.27;102967.72;5073586;28;20037;-69
2022/12/01 08:20:42;;;;;;;101.25;44.15;;;;;;;12.89;57.96;102979.53;5063699;28;20116;-69
2022/12/01 08:23:07;;;;;;;98.57;44.35;;;;;;;12.27;60.49;102971.81;5058802;28;20625;-71
2022/12/01 08:25:33;;;;;;;107.38;45.80;;;;;;;12.64;59.23;102976.28;5065362;28;20047;-70
2022/12/01 08:27:59;;;;;;;99.30;43.42;;;;;;;12.68;58.93;102979.44;5043972;28;20023;-69
2022/12/01 08:30:26;;;;;;;108.45;46.28;;;;;;;12.51;59.43;102981.50;5066399;28;20024;-69
2022/12/01 08:32:56;;;;;;;106.00;44.80;;;;;;;11.94;61.37;102981.25;5064488;28;20025;-71
2022/12/01 08:35:22;;;;;;;110.63;44.97;;;;;;;11.57;63.17;102986.56;5022797;28;20098;-70
2022/12/01 08:37:50;;;;;;;115.90;47.95;;;;;;;12.02;62.05;102985.72;5048490;28;20040;-70
2022/12/01 08:40:15;;;;;;;107.13;44.17;;;;;;;12.19;60.60;102984.53;5061296;28;20044;-70
2022/12/01 08:42:40;;;;;;;113.70;45.83;;;;;;;12.38;60.81;102988.56;5055825;28;20028;-70
2022/12/01 08:45:06;;;;;;;118.18;46.78;;;;;;;12.23;61.20;102986.69;5042580;28;20115;-71
2022/12/01 08:47:31;;;;;;;114.72;46.85;;;;;;;12.49;60.83;102988.94;5069434;28;20032;-70
2022/12/01 08:49:57;;;;;;;111.60;44.17;;;;;;;12.10;61.23;102991.88;5066511;28;20556;-69
2022/12/01 08:52:22;;;;;;;124.43;47.25;;;;;;;12.43;61.15;102987.00;5066963;28;20090;-71
2022/12/01 08:54:47;;;;;;;115.15;44.35;;;;;;;12.21;61.29;102986.03;5043540;28;20039;-70
2022/12/01 08:57:13;;;;;;;122.88;49.50;;;;;;;11.84;62.40;102995.97;5047432;28;20085;-69
2022/12/01 08:59:38;;;;;;;129.20;47.55;;;;;;;12.57;60.48;102994.25;5051210;28;20531;-70
2022/12/01 09:02:05;;;;;;;118.25;47.67;;;;;;;12.58;60.26;103003.19;5068342;28;20086;-71
2022/12/01 09:04:32;;;;;;;122.43;48.88;;;;;;;12.53;60.89;103001.03;5068462;28;20516;-69
2022/12/01 09:06:57;;;;;;;128.88;52.10;;;;;;;12.53;61.11;102998.34;5071475;28;20076;-70
2022/12/01 09:09:27;;;;;;;139.82;49.45;;;;;;;11.93;62.90;102998.41;5070712;28;20533;-69
2022/12/01 09:11:54;;;;;;;131.18;51.70;;;;;;;12.49;61.23;102988.09;5071355;28;20051;-70
2022/12/01 09:14:20;;;;;;;128.40;51.03;;;;;;;12.78;61.80;102988.94;5052768;28;20471;-70
2022/12/01 09:16:48;;;;;;;135.25;53.22;;;;;;;12.79;60.76;102987.94;5071305;28;20546;-70
2022/12/01 09:19:15;;;;;;;126.28;50.92;;;;;;;12.80;60.50;102991.44;5071134;28;20029;-70
2022/12/01 09:21:42;;;;;;;115.45;49.15;;;;;;;13.07;60.30;102996.22;5071487;28;20036;-69
2022/12/01 09:24:10;;;;;;;134.98;52.42;;;;;;;12.82;60.85;102992.94;5068389;28;20484;-70
2022/12/01 09:26:36;;;;;;;127.40;52.15;;;;;;;13.05;60.71;102999.09;5071022;28;20090;-70
2022/12/01 09:29:08;;;;;;;126.07;49.72;;;;;;;13.30;59.74;102998.75;5070861;28;20560;-70
2022/12/01 09:31:34;;;;;;;122.22;49.60;;;;;;;13.35;59.70;102993.59;5069070;28;20420;-70
2022/12/01 09:34:06;;;;;;;124.32;48.63;;;;;;;12.91;61.28;102993.69;5071434;28;20040;-69
2022/12/01 09:36:33;;;;;;;113.10;49.10;;;;;;;13.19;60.59;102992.81;5068706;28;20040;-70
2022/12/01 09:38:58;;;;;;;124.53;49.85;;;;;;;13.29;60.23;102991.69;5044357;28;20040;-70
2022/12/01 09:41:52;;;;;;;113.45;47.70;;;;;;;13.31;59.10;102987.75;5070484;28;20041;-71
2022/12/01 09:44:42;;;;;;;121.15;47.97;;;;;;;13.34;59.71;102990.09;5068472;28;20090;-70
2022/12/01 09:47:17;;;;;;;120.78;48.10;;;;;;;13.48;59.55;102978.41;5067970;28;20040;-71
2022/12/01 09:49:53;;;;;;;112.53;45.13;;;;;;;13.57;58.91;102981.81;5070444;28;20578;-69
2022/12/01 09:52:20;;;;;;;121.50;50.47;;;;;;;13.18;59.93;102983.06;5070420;28;20017;-70
2022/12/01 09:54:46;;;;;;;117.43;47.50;;;;;;;12.06;63.22;102981.66;5071017;28;20024;-71
2022/12/01 09:57:34;;;;;;;120.07;51.65;;;;;;;12.27;63.24;102989.84;5070524;28;20040;-71
2022/12/01 10:00:03;;;;;;;109.95;47.95;;;;;;;12.40;62.51;102981.13;5069414;28;20041;-70
2022/12/01 10:02:36;;;;;;;119.85;48.17;;;;;;;12.52;61.53;102985.06;5061169;28;20124;-69
2022/12/01 10:05:05;;;;;;;120.35;47.95;;;;;;;12.42;62.00;102979.94;5070291;28;20879;-70
2022/12/01 10:07:37;;;;;;;112.68;46.80;;;;;;;12.94;60.96;102986.06;5068006;28;20056;-70
2022/12/01 10:10:25;;;;;;;117.45;47.65;;;;;;;12.75;60.82;102973.16;5070563;28;20520;-70
2022/12/01 10:12:51;;;;;;;124.18;48.90;;;;;;;12.84;61.16;102971.16;5067764;28;20036;-69
2022/12/01 10:15:37;;;;;;;123.72;48.30;;;;;;;13.23;59.40;102975.22;5070145;28;20028;-71
2022/12/01 10:18:18;;;;;;;114.47;47.58;;;;;;;12.55;61.73;102977.44;5069554;28;20048;-69
2022/12/01 10:20:56;;;;;;;121.63;48.75;;;;;;;12.74;60.70;102974.16;5070279;28;20032;-71
2022/12/01 10:24:01;;;;;;;120.70;48.65;;;;;;;13.12;59.30;102975.72;5070079;28;20036;-72
2022/12/01 10:26:39;;;;;;;122.43;49.63;;;;;;;12.59;61.61;102972.50;5069831;28;20032;-69
2022/12/01 10:29:26;;;;;;;121.55;48.92;;;;;;;12.49;61.39;102963.84;5051592;28;20488;-70
2022/12/01 10:31:56;;;;;;;139.05;51.75;;;;;;;12.52;61.27;102968.88;5067689;28;20043;-69
2022/12/01 10:34:35;;;;;;;125.45;50.35;;;;;;;12.46;62.11;102970.44;5070325;28;20051;-70
2022/12/01 10:37:01;;;;;;;118.90;50.22;;;;;;;12.56;61.60;102967.47;5046083;28;20039;-69
2022/12/01 10:39:37;;;;;;;124.03;49.53;;;;;;;13.30;59.37;102958.25;5066184;28;20044;-71
2022/12/01 10:42:13;;;;;;;125.43;50.17;;;;;;;12.93;60.12;102970.88;5063766;28;20157;-70
2022/12/01 10:44:39;;;;;;;118.38;50.30;;;;;;;12.63;61.18;102958.47;5067996;28;20029;-70
2022/12/01 10:47:17;;;;;;;140.02;51.45;;;;;;;12.77;61.32;102963.00;5037507;28;20082;-71
2022/12/01 10:49:42;;;;;;;129.00;51.58;;;;;;;13.18;59.99;102966.88;5059527;28;20112;-70
2022/12/01 10:52:32;;;;;;;135.98;51.47;;;;;;;13.38;58.75;102963.53;5068287;28;20112;-70
2022/12/01 10:54:58;;;;;;;131.77;50.70;;;;;;;13.47;59.18;102963.22;5068283;28;20048;-69
2022/12/01 10:57:26;;;;;;;130.40;50.25;;;;;;;12.74;60.84;102962.53;5052615;28;20033;-69
2022/12/01 10:59:56;;;;;;;131.63;49.30;;;;;;;12.66;62.18;102954.56;5070471;28;20048;-70
2022/12/01 11:02:24;;;;;;;130.23;50.17;;;;;;;13.25;59.73;102960.72;5068489;28;20044;-71
2022/12/01 11:04:52;;;;;;;128.75;50.72;;;;;;;13.44;59.14;102951.97;5070477;28;20434;-70
2022/12/01 11:07:32;;;;;;;119.65;47.00;;;;;;;11.87;64.49;102957.91;5067196;28;20117;-70
2022/12/01 11:10:12;;;;;;;123.10;50.67;;;;;;;11.74;65.02;102958.53;5068515;28;20148;-70
2022/12/01 11:12:38;;;;;;;122.28;47.55;;;;;;;12.35;63.92;102955.56;5068664;28;20048;-69
2022/12/01 11:15:05;;;;;;;119.50;47.85;;;;;;;13.32;60.24;102951.63;5069827;28;20040;-71
2022/12/01 11:17:35;;;;;;;115.93;48.03;;;;;;;13.67;58.76;102944.50;5068546;28;20036;-70
2022/12/01 11:20:32;;;;;;;117.22;49.00;;;;;;;12.34;62.09;102947.69;5066973;28;20365;-69
2022/12/01 11:23:16;;;;;;;117.72;48.20;;;;;;;13.48;59.56;102951.41;5069424;28;20076;-69
2022/12/01 11:26:14;;;;;;;123.63;47.25;;;;;;;12.59;62.27;102942.81;5069813;28;20053;-71